Finly, Indiana
Current Conditions -  °F | °C
As of 9:53 PM on Sunday 21 Dec 2014 (Local Time) from KGEZ Reporting Station
Clear Clear  
Wind Chill: 23°   Ceiling: Unl
Heat Index: 30°   Visibility: 8mi
Dew Point: 25°   Wind: 7mph
Humidity: 82%   Direction: 110°ESE
Pressure: 30.11"   Gusts: NA
Location:  39.71°N, 85.82°W
Report Text: KGEZ 220253Z AUTO 11006KT 8SM CLR M01/M04 A3011 RMK AO2 SLP203 T10111039 58009
Loading
Personal Weather Stations






























Interactive Weather Map New forecast layout! Learn more

10-Day Weather Forecast

Advertisements
Track Severe Weather on mobile